sensor_id;sensor_type;location;lat;lon;timestamp;P1;durP1;ratioP1;P2;durP2;ratioP2
41532;SDS011;27262;-35.248;149.138;2023-03-01T00:00:16;5.35;;;4.85;;
41532;SDS011;27262;-35.248;149.138;2023-03-01T00:02:46;5.90;;;4.60;;
41532;SDS011;27262;-35.248;149.138;2023-03-01T00:05:16;7.28;;;4.70;;
41532;SDS011;27262;-35.248;149.138;2023-03-01T00:07:47;6.57;;;5.13;;
41532;SDS011;27262;-35.248;149.138;2023-03-01T00:10:17;5.22;;;4.70;;
41532;SDS011;27262;-35.248;149.138;2023-03-01T00:12:47;6.38;;;4.95;;
41532;SDS011;27262;-35.248;149.138;2023-03-01T00:15:18;5.85;;;4.80;;
41532;SDS011;27262;-35.248;149.138;2023-03-01T00:17:48;8.23;;;4.82;;
41532;SDS011;27262;-35.248;149.138;2023-03-01T00:20:18;7.05;;;4.88;;
41532;SDS011;27262;-35.248;149.138;2023-03-01T00:22:49;12.27;;;5.05;;
41532;SDS011;27262;-35.248;149.138;2023-03-01T00:25:19;10.77;;;4.93;;
41532;SDS011;27262;-35.248;149.138;2023-03-01T00:27:49;12.27;;;5.40;;
41532;SDS011;27262;-35.248;149.138;2023-03-01T00:30:20;8.20;;;4.68;;
41532;SDS011;27262;-35.248;149.138;2023-03-01T00:32:50;9.20;;;5.95;;
41532;SDS011;27262;-35.248;149.138;2023-03-01T00:35:21;6.28;;;5.07;;
41532;SDS011;27262;-35.248;149.138;2023-03-01T00:37:51;5.85;;;5.25;;
41532;SDS011;27262;-35.248;149.138;2023-03-01T00:40:27;8.88;;;5.30;;
41532;SDS011;27262;-35.248;149.138;2023-03-01T00:42:57;5.63;;;4.88;;
41532;SDS011;27262;-35.248;149.138;2023-03-01T00:45:28;6.43;;;5.00;;
41532;SDS011;27262;-35.248;149.138;2023-03-01T00:47:59;6.43;;;5.47;;
41532;SDS011;27262;-35.248;149.138;2023-03-01T00:50:30;7.78;;;5.47;;
41532;SDS011;27262;-35.248;149.138;2023-03-01T00:53:00;7.93;;;5.20;;
41532;SDS011;27262;-35.248;149.138;2023-03-01T00:55:30;6.78;;;5.38;;
41532;SDS011;27262;-35.248;149.138;2023-03-01T00:58:01;6.13;;;4.57;;
41532;SDS011;27262;-35.248;149.138;2023-03-01T01:00:31;5.85;;;5.35;;
41532;SDS011;27262;-35.248;149.138;2023-03-01T01:03:02;6.25;;;4.95;;
41532;SDS011;27262;-35.248;149.138;2023-03-01T01:05:34;5.32;;;4.72;;
41532;SDS011;27262;-35.248;149.138;2023-03-01T01:08:04;6.10;;;5.50;;
41532;SDS011;27262;-35.248;149.138;2023-03-01T01:10:35;7.38;;;4.57;;
41532;SDS011;27262;-35.248;149.138;2023-03-01T01:13:05;5.97;;;5.18;;
41532;SDS011;27262;-35.248;149.138;2023-03-01T01:15:36;4.93;;;4.53;;
41532;SDS011;27262;-35.248;149.138;2023-03-01T01:18:07;6.50;;;4.93;;
41532;SDS011;27262;-35.248;149.138;2023-03-01T01:20:37;5.30;;;4.75;;
41532;SDS011;27262;-35.248;149.138;2023-03-01T01:23:08;6.45;;;5.10;;
41532;SDS011;27262;-35.248;149.138;2023-03-01T01:25:38;5.90;;;5.25;;
41532;SDS011;27262;-35.248;149.138;2023-03-01T01:28:08;6.30;;;5.50;;
41532;SDS011;27262;-35.248;149.138;2023-03-01T01:30:39;5.78;;;4.43;;
41532;SDS011;27262;-35.248;149.138;2023-03-01T01:33:09;5.47;;;4.80;;
41532;SDS011;27262;-35.248;149.138;2023-03-01T01:35:39;7.00;;;5.22;;
41532;SDS011;27262;-35.248;149.138;2023-03-01T01:38:11;5.97;;;4.78;;
41532;SDS011;27262;-35.248;149.138;2023-03-01T01:40:45;5.47;;;4.85;;
41532;SDS011;27262;-35.248;149.138;2023-03-01T01:43:27;7.05;;;5.32;;
41532;SDS011;27262;-35.248;149.138;2023-03-01T01:46:06;5.55;;;4.75;;
41532;SDS011;27262;-35.248;149.138;2023-03-01T01:48:46;5.28;;;4.63;;
41532;SDS011;27262;-35.248;149.138;2023-03-01T01:51:39;7.28;;;5.43;;
41532;SDS011;27262;-35.248;149.138;2023-03-01T01:54:14;5.25;;;4.70;;
41532;SDS011;27262;-35.248;149.138;2023-03-01T01:56:56;6.38;;;4.60;;
41532;SDS011;27262;-35.248;149.138;2023-03-01T01:59:31;5.25;;;4.63;;
41532;SDS011;27262;-35.248;149.138;2023-03-01T02:02:03;5.13;;;4.53;;
41532;SDS011;27262;-35.248;149.138;2023-03-01T02:04:34;11.45;;;5.38;;
41532;SDS011;27262;-35.248;149.138;2023-03-01T02:07:22;7.45;;;4.20;;
41532;SDS011;27262;-35.248;149.138;2023-03-01T02:09:53;5.85;;;4.80;;
41532;SDS011;27262;-35.248;149.138;2023-03-01T02:12:23;9.30;;;4.95;;
41532;SDS011;27262;-35.248;149.138;2023-03-01T02:14:54;6.55;;;4.28;;
41532;SDS011;27262;-35.248;149.138;2023-03-01T02:17:25;14.05;;;5.30;;
41532;SDS011;27262;-35.248;149.138;2023-03-01T02:22:35;9.13;;;4.47;;
41532;SDS011;27262;-35.248;149.138;2023-03-01T02:30:48;6.53;;;4.45;;
41532;SDS011;27262;-35.248;149.138;2023-03-01T02:33:38;4.60;;;3.90;;
41532;SDS011;27262;-35.248;149.138;2023-03-01T02:36:10;7.10;;;4.40;;
41532;SDS011;27262;-35.248;149.138;2023-03-01T02:38:44;4.30;;;3.90;;
41532;SDS011;27262;-35.248;149.138;2023-03-01T02:41:16;5.18;;;3.80;;
41532;SDS011;27262;-35.248;149.138;2023-03-01T02:43:48;5.10;;;3.72;;
41532;SDS011;27262;-35.248;149.138;2023-03-01T02:46:19;4.57;;;4.18;;
41532;SDS011;27262;-35.248;149.138;2023-03-01T02:48:55;5.38;;;4.00;;
41532;SDS011;27262;-35.248;149.138;2023-03-01T02:56:48;4.57;;;4.18;;
41532;SDS011;27262;-35.248;149.138;2023-03-01T02:59:19;4.47;;;3.70;;
41532;SDS011;27262;-35.248;149.138;2023-03-01T03:01:53;4.82;;;3.67;;
41532;SDS011;27262;-35.248;149.138;2023-03-01T03:04:23;5.25;;;4.32;;
41532;SDS011;27262;-35.248;149.138;2023-03-01T03:06:54;5.60;;;3.85;;
41532;SDS011;27262;-35.248;149.138;2023-03-01T03:09:24;10.63;;;4.05;;
41532;SDS011;27262;-35.248;149.138;2023-03-01T03:11:54;7.10;;;4.22;;
41532;SDS011;27262;-35.248;149.138;2023-03-01T03:14:25;6.38;;;4.15;;
41532;SDS011;27262;-35.248;149.138;2023-03-01T03:16:55;4.07;;;3.78;;
41532;SDS011;27262;-35.248;149.138;2023-03-01T03:19:25;4.43;;;4.03;;
41532;SDS011;27262;-35.248;149.138;2023-03-01T03:21:55;4.53;;;4.13;;
41532;SDS011;27262;-35.248;149.138;2023-03-01T03:24:26;6.00;;;4.78;;
41532;SDS011;27262;-35.248;149.138;2023-03-01T03:27:06;7.88;;;3.95;;
41532;SDS011;27262;-35.248;149.138;2023-03-01T03:29:37;4.25;;;3.80;;
41532;SDS011;27262;-35.248;149.138;2023-03-01T03:32:07;4.18;;;3.78;;
41532;SDS011;27262;-35.248;149.138;2023-03-01T03:34:38;6.20;;;3.85;;
41532;SDS011;27262;-35.248;149.138;2023-03-01T03:37:08;5.53;;;4.10;;
41532;SDS011;27262;-35.248;149.138;2023-03-01T03:39:58;4.40;;;3.70;;
41532;SDS011;27262;-35.248;149.138;2023-03-01T03:42:29;4.15;;;3.33;;
41532;SDS011;27262;-35.248;149.138;2023-03-01T03:45:00;4.57;;;3.28;;
41532;SDS011;27262;-35.248;149.138;2023-03-01T03:47:30;3.60;;;3.30;;
41532;SDS011;27262;-35.248;149.138;2023-03-01T03:50:00;3.83;;;3.45;;
41532;SDS011;27262;-35.248;149.138;2023-03-01T03:52:30;3.75;;;3.42;;
41532;SDS011;27262;-35.248;149.138;2023-03-01T03:55:01;3.35;;;3.05;;
41532;SDS011;27262;-35.248;149.138;2023-03-01T03:57:31;3.33;;;3.00;;
41532;SDS011;27262;-35.248;149.138;2023-03-01T04:00:01;3.35;;;3.05;;
41532;SDS011;27262;-35.248;149.138;2023-03-01T04:02:33;4.75;;;2.72;;
41532;SDS011;27262;-35.248;149.138;2023-03-01T04:05:07;3.88;;;3.45;;
41532;SDS011;27262;-35.248;149.138;2023-03-01T04:07:39;5.78;;;3.03;;
41532;SDS011;27262;-35.248;149.138;2023-03-01T04:10:14;3.38;;;2.65;;
41532;SDS011;27262;-35.248;149.138;2023-03-01T04:12:46;8.05;;;3.13;;
41532;SDS011;27262;-35.248;149.138;2023-03-01T04:15:16;3.03;;;2.50;;
41532;SDS011;27262;-35.248;149.138;2023-03-01T04:17:47;3.15;;;2.67;;
41532;SDS011;27262;-35.248;149.138;2023-03-01T04:20:19;3.70;;;2.58;;
41532;SDS011;27262;-35.248;149.138;2023-03-01T04:23:08;3.13;;;2.10;;
41532;SDS011;27262;-35.248;149.138;2023-03-01T04:28:27;4.35;;;2.40;;
41532;SDS011;27262;-35.248;149.138;2023-03-01T04:31:03;3.38;;;2.08;;
41532;SDS011;27262;-35.248;149.138;2023-03-01T04:33:46;3.22;;;2.30;;
41532;SDS011;27262;-35.248;149.138;2023-03-01T04:36:21;3.70;;;2.60;;
41532;SDS011;27262;-35.248;149.138;2023-03-01T04:38:57;2.55;;;1.90;;
41532;SDS011;27262;-35.248;149.138;2023-03-01T04:41:27;3.42;;;1.88;;
41532;SDS011;27262;-35.248;149.138;2023-03-01T04:43:57;2.10;;;1.90;;
41532;SDS011;27262;-35.248;149.138;2023-03-01T04:46:28;3.55;;;2.30;;
41532;SDS011;27262;-35.248;149.138;2023-03-01T04:48:59;3.13;;;1.95;;
41532;SDS011;27262;-35.248;149.138;2023-03-01T04:51:29;3.03;;;1.92;;
41532;SDS011;27262;-35.248;149.138;2023-03-01T04:54:03;4.05;;;2.10;;
41532;SDS011;27262;-35.248;149.138;2023-03-01T04:56:37;2.33;;;2.10;;
41532;SDS011;27262;-35.248;149.138;2023-03-01T04:59:07;3.40;;;1.65;;
41532;SDS011;27262;-35.248;149.138;2023-03-01T05:01:38;3.08;;;1.58;;
41532;SDS011;27262;-35.248;149.138;2023-03-01T05:04:11;2.67;;;1.77;;
41532;SDS011;27262;-35.248;149.138;2023-03-01T05:06:41;2.55;;;1.80;;
41532;SDS011;27262;-35.248;149.138;2023-03-01T05:09:13;2.90;;;1.75;;
41532;SDS011;27262;-35.248;149.138;2023-03-01T05:11:43;2.65;;;1.50;;
41532;SDS011;27262;-35.248;149.138;2023-03-01T05:14:13;1.55;;;1.45;;
41532;SDS011;27262;-35.248;149.138;2023-03-01T05:16:43;4.00;;;1.38;;
41532;SDS011;27262;-35.248;149.138;2023-03-01T05:19:14;2.05;;;1.20;;
41532;SDS011;27262;-35.248;149.138;2023-03-01T05:21:44;1.67;;;1.30;;
41532;SDS011;27262;-35.248;149.138;2023-03-01T05:24:34;1.73;;;1.30;;
41532;SDS011;27262;-35.248;149.138;2023-03-01T05:27:04;3.15;;;1.48;;
41532;SDS011;27262;-35.248;149.138;2023-03-01T05:29:34;1.63;;;1.42;;
41532;SDS011;27262;-35.248;149.138;2023-03-01T05:32:05;2.15;;;1.17;;
41532;SDS011;27262;-35.248;149.138;2023-03-01T05:34:37;2.28;;;1.50;;
41532;SDS011;27262;-35.248;149.138;2023-03-01T05:37:07;2.15;;;1.25;;
41532;SDS011;27262;-35.248;149.138;2023-03-01T05:39:39;1.73;;;1.45;;
41532;SDS011;27262;-35.248;149.138;2023-03-01T05:42:10;5.15;;;1.20;;
41532;SDS011;27262;-35.248;149.138;2023-03-01T05:44:41;5.95;;;1.20;;
41532;SDS011;27262;-35.248;149.138;2023-03-01T05:47:11;2.40;;;1.40;;
41532;SDS011;27262;-35.248;149.138;2023-03-01T05:49:41;2.95;;;1.52;;
41532;SDS011;27262;-35.248;149.138;2023-03-01T05:52:11;1.73;;;1.45;;
41532;SDS011;27262;-35.248;149.138;2023-03-01T05:54:42;4.30;;;1.67;;
41532;SDS011;27262;-35.248;149.138;2023-03-01T05:57:12;5.97;;;1.70;;
41532;SDS011;27262;-35.248;149.138;2023-03-01T05:59:43;2.55;;;1.75;;
41532;SDS011;27262;-35.248;149.138;2023-03-01T06:02:14;3.67;;;1.48;;
41532;SDS011;27262;-35.248;149.138;2023-03-01T06:04:44;3.78;;;1.50;;
41532;SDS011;27262;-35.248;149.138;2023-03-01T06:07:15;3.92;;;1.50;;
41532;SDS011;27262;-35.248;149.138;2023-03-01T06:09:45;1.58;;;1.20;;
41532;SDS011;27262;-35.248;149.138;2023-03-01T06:12:16;7.97;;;1.70;;
41532;SDS011;27262;-35.248;149.138;2023-03-01T06:14:46;7.22;;;2.85;;
41532;SDS011;27262;-35.248;149.138;2023-03-01T06:17:16;15.45;;;5.47;;
41532;SDS011;27262;-35.248;149.138;2023-03-01T06:19:47;29.98;;;7.90;;
41532;SDS011;27262;-35.248;149.138;2023-03-01T06:22:17;31.45;;;9.57;;
41532;SDS011;27262;-35.248;149.138;2023-03-01T06:24:47;31.00;;;9.43;;
41532;SDS011;27262;-35.248;149.138;2023-03-01T06:27:18;23.20;;;8.23;;
41532;SDS011;27262;-35.248;149.138;2023-03-01T06:29:48;25.50;;;7.90;;
41532;SDS011;27262;-35.248;149.138;2023-03-01T06:32:18;25.40;;;7.93;;
41532;SDS011;27262;-35.248;149.138;2023-03-01T06:34:49;24.23;;;6.78;;
41532;SDS011;27262;-35.248;149.138;2023-03-01T06:37:19;22.77;;;6.35;;
41532;SDS011;27262;-35.248;149.138;2023-03-01T06:39:49;15.93;;;6.10;;
41532;SDS011;27262;-35.248;149.138;2023-03-01T06:42:20;16.27;;;5.90;;
41532;SDS011;27262;-35.248;149.138;2023-03-01T06:44:50;20.52;;;6.18;;
41532;SDS011;27262;-35.248;149.138;2023-03-01T06:47:20;11.90;;;5.45;;
41532;SDS011;27262;-35.248;149.138;2023-03-01T06:49:51;13.80;;;5.05;;
41532;SDS011;27262;-35.248;149.138;2023-03-01T06:52:21;13.25;;;5.10;;
41532;SDS011;27262;-35.248;149.138;2023-03-01T06:54:51;19.10;;;4.88;;
41532;SDS011;27262;-35.248;149.138;2023-03-01T06:57:21;23.30;;;4.97;;
41532;SDS011;27262;-35.248;149.138;2023-03-01T06:59:52;19.42;;;5.13;;
41532;SDS011;27262;-35.248;149.138;2023-03-01T07:02:22;17.02;;;4.63;;
41532;SDS011;27262;-35.248;149.138;2023-03-01T07:04:53;15.23;;;4.28;;
41532;SDS011;27262;-35.248;149.138;2023-03-01T07:07:23;10.85;;;5.22;;
41532;SDS011;27262;-35.248;149.138;2023-03-01T07:09:54;17.30;;;4.50;;
41532;SDS011;27262;-35.248;149.138;2023-03-01T07:12:24;15.85;;;4.65;;
41532;SDS011;27262;-35.248;149.138;2023-03-01T07:14:54;11.60;;;4.28;;
41532;SDS011;27262;-35.248;149.138;2023-03-01T07:17:24;10.65;;;4.38;;
41532;SDS011;27262;-35.248;149.138;2023-03-01T07:19:55;13.73;;;4.63;;
41532;SDS011;27262;-35.248;149.138;2023-03-01T07:22:25;11.48;;;4.05;;
41532;SDS011;27262;-35.248;149.138;2023-03-01T07:24:56;12.48;;;4.18;;
41532;SDS011;27262;-35.248;149.138;2023-03-01T07:27:26;10.20;;;3.80;;
41532;SDS011;27262;-35.248;149.138;2023-03-01T07:29:56;10.52;;;4.10;;
41532;SDS011;27262;-35.248;149.138;2023-03-01T07:32:26;7.80;;;3.75;;
41532;SDS011;27262;-35.248;149.138;2023-03-01T07:34:57;8.77;;;3.63;;
41532;SDS011;27262;-35.248;149.138;2023-03-01T07:37:27;10.75;;;4.32;;
41532;SDS011;27262;-35.248;149.138;2023-03-01T07:39:57;7.53;;;3.53;;
41532;SDS011;27262;-35.248;149.138;2023-03-01T07:42:27;12.20;;;4.38;;
41532;SDS011;27262;-35.248;149.138;2023-03-01T07:44:58;13.00;;;4.72;;
41532;SDS011;27262;-35.248;149.138;2023-03-01T07:47:28;9.23;;;4.07;;
41532;SDS011;27262;-35.248;149.138;2023-03-01T07:49:58;8.55;;;3.50;;
41532;SDS011;27262;-35.248;149.138;2023-03-01T07:52:29;12.07;;;4.97;;
41532;SDS011;27262;-35.248;149.138;2023-03-01T07:54:59;9.32;;;3.63;;
41532;SDS011;27262;-35.248;149.138;2023-03-01T07:57:30;9.88;;;3.80;;
41532;SDS011;27262;-35.248;149.138;2023-03-01T08:00:00;7.53;;;3.60;;
41532;SDS011;27262;-35.248;149.138;2023-03-01T08:02:31;11.07;;;3.83;;
41532;SDS011;27262;-35.248;149.138;2023-03-01T08:05:01;7.15;;;3.72;;
41532;SDS011;27262;-35.248;149.138;2023-03-01T08:07:32;10.68;;;3.97;;
41532;SDS011;27262;-35.248;149.138;2023-03-01T08:10:03;7.85;;;3.38;;
41532;SDS011;27262;-35.248;149.138;2023-03-01T08:12:33;9.20;;;3.83;;
41532;SDS011;27262;-35.248;149.138;2023-03-01T08:15:04;6.63;;;3.38;;
41532;SDS011;27262;-35.248;149.138;2023-03-01T08:17:34;6.90;;;3.35;;
41532;SDS011;27262;-35.248;149.138;2023-03-01T08:20:05;7.53;;;3.35;;
41532;SDS011;27262;-35.248;149.138;2023-03-01T08:22:36;7.07;;;3.50;;
41532;SDS011;27262;-35.248;149.138;2023-03-01T08:25:06;7.75;;;3.15;;
41532;SDS011;27262;-35.248;149.138;2023-03-01T08:27:37;8.25;;;3.47;;
41532;SDS011;27262;-35.248;149.138;2023-03-01T08:30:08;7.32;;;3.60;;
41532;SDS011;27262;-35.248;149.138;2023-03-01T08:32:39;7.13;;;3.15;;
41532;SDS011;27262;-35.248;149.138;2023-03-01T08:35:09;7.70;;;3.33;;
41532;SDS011;27262;-35.248;149.138;2023-03-01T08:37:40;4.80;;;2.90;;
41532;SDS011;27262;-35.248;149.138;2023-03-01T08:40:10;9.93;;;3.30;;
41532;SDS011;27262;-35.248;149.138;2023-03-01T08:42:42;6.78;;;3.63;;
41532;SDS011;27262;-35.248;149.138;2023-03-01T08:45:12;6.32;;;2.95;;
41532;SDS011;27262;-35.248;149.138;2023-03-01T08:47:46;6.38;;;3.38;;
41532;SDS011;27262;-35.248;149.138;2023-03-01T08:50:16;8.88;;;3.83;;
41532;SDS011;27262;-35.248;149.138;2023-03-01T08:52:47;6.65;;;3.25;;
41532;SDS011;27262;-35.248;149.138;2023-03-01T08:55:17;5.13;;;2.75;;
41532;SDS011;27262;-35.248;149.138;2023-03-01T08:57:47;5.82;;;2.80;;
41532;SDS011;27262;-35.248;149.138;2023-03-01T09:00:17;6.28;;;3.35;;
41532;SDS011;27262;-35.248;149.138;2023-03-01T09:02:48;6.80;;;3.00;;
41532;SDS011;27262;-35.248;149.138;2023-03-01T09:05:18;6.38;;;3.03;;
41532;SDS011;27262;-35.248;149.138;2023-03-01T09:07:49;5.07;;;2.83;;
41532;SDS011;27262;-35.248;149.138;2023-03-01T09:10:19;5.85;;;2.95;;
41532;SDS011;27262;-35.248;149.138;2023-03-01T09:12:50;5.68;;;3.13;;
41532;SDS011;27262;-35.248;149.138;2023-03-01T09:15:21;4.97;;;2.50;;
41532;SDS011;27262;-35.248;149.138;2023-03-01T09:17:51;6.03;;;2.65;;
41532;SDS011;27262;-35.248;149.138;2023-03-01T09:20:21;5.20;;;2.80;;
41532;SDS011;27262;-35.248;149.138;2023-03-01T09:22:51;5.75;;;2.60;;
41532;SDS011;27262;-35.248;149.138;2023-03-01T09:25:22;6.38;;;3.00;;
41532;SDS011;27262;-35.248;149.138;2023-03-01T09:27:53;4.90;;;2.85;;
41532;SDS011;27262;-35.248;149.138;2023-03-01T09:30:24;3.97;;;2.72;;
41532;SDS011;27262;-35.248;149.138;2023-03-01T09:32:56;3.72;;;2.50;;
41532;SDS011;27262;-35.248;149.138;2023-03-01T09:35:26;4.05;;;2.33;;
41532;SDS011;27262;-35.248;149.138;2023-03-01T09:37:57;5.22;;;2.47;;
41532;SDS011;27262;-35.248;149.138;2023-03-01T09:40:27;5.22;;;2.92;;
41532;SDS011;27262;-35.248;149.138;2023-03-01T09:43:05;5.47;;;3.17;;
41532;SDS011;27262;-35.248;149.138;2023-03-01T09:45:45;4.63;;;2.70;;
41532;SDS011;27262;-35.248;149.138;2023-03-01T09:48:22;4.90;;;2.30;;
41532;SDS011;27262;-35.248;149.138;2023-03-01T09:50:55;4.93;;;2.80;;
41532;SDS011;27262;-35.248;149.138;2023-03-01T09:53:31;5.47;;;2.58;;
41532;SDS011;27262;-35.248;149.138;2023-03-01T10:10:21;4.05;;;2.63;;
41532;SDS011;27262;-35.248;149.138;2023-03-01T10:12:57;5.57;;;2.40;;
41532;SDS011;27262;-35.248;149.138;2023-03-01T10:15:36;3.97;;;2.40;;
41532;SDS011;27262;-35.248;149.138;2023-03-01T10:18:18;3.75;;;2.35;;
41532;SDS011;27262;-35.248;149.138;2023-03-01T10:21:11;3.40;;;2.15;;
41532;SDS011;27262;-35.248;149.138;2023-03-01T10:23:49;4.30;;;2.67;;
41532;SDS011;27262;-35.248;149.138;2023-03-01T10:26:38;3.78;;;2.30;;
41532;SDS011;27262;-35.248;149.138;2023-03-01T10:29:34;3.13;;;2.58;;
41532;SDS011;27262;-35.248;149.138;2023-03-01T10:32:39;5.97;;;2.50;;
41532;SDS011;27262;-35.248;149.138;2023-03-01T10:35:26;4.45;;;2.55;;
41532;SDS011;27262;-35.248;149.138;2023-03-01T10:40:36;4.43;;;2.10;;
41532;SDS011;27262;-35.248;149.138;2023-03-01T10:43:19;3.20;;;2.20;;
41532;SDS011;27262;-35.248;149.138;2023-03-01T10:45:50;6.07;;;2.28;;
41532;SDS011;27262;-35.248;149.138;2023-03-01T10:48:22;3.80;;;2.17;;
41532;SDS011;27262;-35.248;149.138;2023-03-01T10:53:34;4.45;;;2.15;;
41532;SDS011;27262;-35.248;149.138;2023-03-01T10:56:09;7.82;;;2.45;;
41532;SDS011;27262;-35.248;149.138;2023-03-01T11:01:34;6.47;;;2.08;;
41532;SDS011;27262;-35.248;149.138;2023-03-01T11:06:39;4.70;;;2.42;;
41532;SDS011;27262;-35.248;149.138;2023-03-01T11:11:54;5.22;;;2.17;;
41532;SDS011;27262;-35.248;149.138;2023-03-01T11:14:27;9.00;;;2.33;;
41532;SDS011;27262;-35.248;149.138;2023-03-01T11:17:18;6.07;;;1.92;;
41532;SDS011;27262;-35.248;149.138;2023-03-01T11:22:51;11.13;;;2.25;;
41532;SDS011;27262;-35.248;149.138;2023-03-01T11:25:24;4.43;;;2.03;;
41532;SDS011;27262;-35.248;149.138;2023-03-01T11:27:56;2.75;;;1.90;;
41532;SDS011;27262;-35.248;149.138;2023-03-01T11:38:54;4.15;;;2.00;;
41532;SDS011;27262;-35.248;149.138;2023-03-01T11:41:27;3.65;;;1.88;;
41532;SDS011;27262;-35.248;149.138;2023-03-01T11:44:14;3.47;;;1.92;;
41532;SDS011;27262;-35.248;149.138;2023-03-01T11:50:02;4.68;;;2.08;;
41532;SDS011;27262;-35.248;149.138;2023-03-01T11:52:53;3.40;;;1.85;;
41532;SDS011;27262;-35.248;149.138;2023-03-01T11:56:32;4.88;;;2.03;;
41532;SDS011;27262;-35.248;149.138;2023-03-01T12:06:57;4.32;;;1.98;;
41532;SDS011;27262;-35.248;149.138;2023-03-01T12:21:07;4.18;;;1.92;;
41532;SDS011;27262;-35.248;149.138;2023-03-01T12:32:36;4.15;;;1.77;;
41532;SDS011;27262;-35.248;149.138;2023-03-01T12:41:28;2.53;;;1.80;;
41532;SDS011;27262;-35.248;149.138;2023-03-01T12:44:10;4.05;;;2.13;;
41532;SDS011;27262;-35.248;149.138;2023-03-01T12:46:53;3.22;;;1.42;;
41532;SDS011;27262;-35.248;149.138;2023-03-01T12:49:28;3.28;;;2.03;;
41532;SDS011;27262;-35.248;149.138;2023-03-01T12:52:28;4.35;;;2.00;;
41532;SDS011;27262;-35.248;149.138;2023-03-01T12:54:54;4.00;;;1.98;;
41532;SDS011;27262;-35.248;149.138;2023-03-01T12:57:36;3.88;;;1.90;;
41532;SDS011;27262;-35.248;149.138;2023-03-01T13:06:21;3.22;;;2.08;;
41532;SDS011;27262;-35.248;149.138;2023-03-01T13:09:14;2.78;;;1.88;;
41532;SDS011;27262;-35.248;149.138;2023-03-01T13:15:24;3.90;;;1.98;;
41532;SDS011;27262;-35.248;149.138;2023-03-01T13:20:31;4.45;;;1.90;;
41532;SDS011;27262;-35.248;149.138;2023-03-01T13:23:07;3.17;;;1.80;;
41532;SDS011;27262;-35.248;149.138;2023-03-01T13:26:23;3.13;;;1.70;;
41532;SDS011;27262;-35.248;149.138;2023-03-01T13:28:48;3.50;;;1.85;;
41532;SDS011;27262;-35.248;149.138;2023-03-01T13:34:00;2.92;;;2.00;;
41532;SDS011;27262;-35.248;149.138;2023-03-01T13:42:02;4.32;;;1.88;;
41532;SDS011;27262;-35.248;149.138;2023-03-01T13:44:33;2.28;;;1.40;;
41532;SDS011;27262;-35.248;149.138;2023-03-01T13:47:07;2.78;;;1.48;;
41532;SDS011;27262;-35.248;149.138;2023-03-01T13:49:53;2.55;;;1.50;;
41532;SDS011;27262;-35.248;149.138;2023-03-01T13:55:43;3.72;;;1.65;;
41532;SDS011;27262;-35.248;149.138;2023-03-01T13:58:27;3.08;;;1.60;;
41532;SDS011;27262;-35.248;149.138;2023-03-01T14:01:05;3.15;;;1.73;;
41532;SDS011;27262;-35.248;149.138;2023-03-01T14:03:40;3.58;;;1.73;;
41532;SDS011;27262;-35.248;149.138;2023-03-01T14:06:19;4.18;;;1.73;;
41532;SDS011;27262;-35.248;149.138;2023-03-01T14:09:27;3.28;;;1.63;;
41532;SDS011;27262;-35.248;149.138;2023-03-01T14:20:32;2.17;;;1.52;;
41532;SDS011;27262;-35.248;149.138;2023-03-01T14:23:10;2.78;;;1.23;;
41532;SDS011;27262;-35.248;149.138;2023-03-01T14:26:00;2.38;;;1.40;;
41532;SDS011;27262;-35.248;149.138;2023-03-01T14:28:32;2.97;;;1.27;;
41532;SDS011;27262;-35.248;149.138;2023-03-01T14:31:31;4.13;;;1.60;;
41532;SDS011;27262;-35.248;149.138;2023-03-01T14:33:59;2.78;;;1.38;;
41532;SDS011;27262;-35.248;149.138;2023-03-01T14:36:30;2.10;;;1.13;;
41532;SDS011;27262;-35.248;149.138;2023-03-01T14:39:15;2.05;;;1.40;;
41532;SDS011;27262;-35.248;149.138;2023-03-01T14:41:53;2.30;;;1.40;;
41532;SDS011;27262;-35.248;149.138;2023-03-01T14:44:30;2.50;;;1.27;;
41532;SDS011;27262;-35.248;149.138;2023-03-01T14:47:05;1.30;;;1.20;;
41532;SDS011;27262;-35.248;149.138;2023-03-01T14:49:40;2.03;;;1.40;;
41532;SDS011;27262;-35.248;149.138;2023-03-01T14:52:25;1.98;;;1.42;;
41532;SDS011;27262;-35.248;149.138;2023-03-01T14:55:07;3.40;;;1.48;;
41532;SDS011;27262;-35.248;149.138;2023-03-01T14:58:10;2.72;;;1.40;;
41532;SDS011;27262;-35.248;149.138;2023-03-01T15:03:48;2.60;;;1.70;;
41532;SDS011;27262;-35.248;149.138;2023-03-01T15:06:20;1.73;;;1.20;;
41532;SDS011;27262;-35.248;149.138;2023-03-01T15:08:53;1.67;;;1.38;;
41532;SDS011;27262;-35.248;149.138;2023-03-01T15:11:29;1.55;;;1.13;;
41532;SDS011;27262;-35.248;149.138;2023-03-01T15:14:00;1.63;;;1.27;;
41532;SDS011;27262;-35.248;149.138;2023-03-01T15:16:50;1.70;;;1.23;;
41532;SDS011;27262;-35.248;149.138;2023-03-01T15:19:20;1.83;;;1.40;;
41532;SDS011;27262;-35.248;149.138;2023-03-01T15:21:55;2.08;;;1.30;;
41532;SDS011;27262;-35.248;149.138;2023-03-01T15:24:27;1.30;;;1.10;;
41532;SDS011;27262;-35.248;149.138;2023-03-01T15:27:01;1.75;;;1.20;;
41532;SDS011;27262;-35.248;149.138;2023-03-01T15:29:35;2.25;;;1.27;;
41532;SDS011;27262;-35.248;149.138;2023-03-01T15:34:54;1.85;;;1.00;;
41532;SDS011;27262;-35.248;149.138;2023-03-01T15:37:45;1.90;;;1.20;;
41532;SDS011;27262;-35.248;149.138;2023-03-01T15:40:21;1.38;;;1.15;;
41532;SDS011;27262;-35.248;149.138;2023-03-01T15:43:03;2.25;;;1.50;;
41532;SDS011;27262;-35.248;149.138;2023-03-01T15:45:34;2.03;;;1.40;;
41532;SDS011;27262;-35.248;149.138;2023-03-01T15:48:17;1.60;;;0.85;;
41532;SDS011;27262;-35.248;149.138;2023-03-01T15:50:58;1.55;;;1.10;;
41532;SDS011;27262;-35.248;149.138;2023-03-01T15:53:30;1.95;;;1.27;;
41532;SDS011;27262;-35.248;149.138;2023-03-01T15:56:03;1.60;;;1.00;;
41532;SDS011;27262;-35.248;149.138;2023-03-01T15:58:35;1.80;;;1.08;;
41532;SDS011;27262;-35.248;149.138;2023-03-01T16:01:08;1.58;;;1.17;;
41532;SDS011;27262;-35.248;149.138;2023-03-01T16:03:47;1.60;;;1.10;;
41532;SDS011;27262;-35.248;149.138;2023-03-01T16:06:18;2.03;;;1.30;;
41532;SDS011;27262;-35.248;149.138;2023-03-01T16:08:48;1.50;;;1.00;;
41532;SDS011;27262;-35.248;149.138;2023-03-01T16:11:19;2.08;;;1.25;;
41532;SDS011;27262;-35.248;149.138;2023-03-01T16:13:50;1.77;;;1.00;;
41532;SDS011;27262;-35.248;149.138;2023-03-01T16:16:20;1.60;;;1.13;;
41532;SDS011;27262;-35.248;149.138;2023-03-01T16:18:51;1.95;;;1.00;;
41532;SDS011;27262;-35.248;149.138;2023-03-01T16:21:23;1.98;;;1.10;;
41532;SDS011;27262;-35.248;149.138;2023-03-01T16:23:55;1.55;;;1.10;;
41532;SDS011;27262;-35.248;149.138;2023-03-01T16:26:25;1.42;;;0.85;;
41532;SDS011;27262;-35.248;149.138;2023-03-01T16:28:56;1.40;;;0.80;;
41532;SDS011;27262;-35.248;149.138;2023-03-01T16:31:27;1.35;;;0.90;;
41532;SDS011;27262;-35.248;149.138;2023-03-01T16:33:58;1.40;;;1.10;;
41532;SDS011;27262;-35.248;149.138;2023-03-01T16:36:30;3.30;;;1.15;;
41532;SDS011;27262;-35.248;149.138;2023-03-01T16:39:00;1.45;;;1.08;;
41532;SDS011;27262;-35.248;149.138;2023-03-01T16:41:31;1.30;;;0.93;;
41532;SDS011;27262;-35.248;149.138;2023-03-01T16:44:02;1.50;;;0.90;;
41532;SDS011;27262;-35.248;149.138;2023-03-01T16:46:32;1.45;;;0.95;;
41532;SDS011;27262;-35.248;149.138;2023-03-01T16:49:02;1.30;;;0.93;;
41532;SDS011;27262;-35.248;149.138;2023-03-01T16:51:33;1.58;;;1.10;;
41532;SDS011;27262;-35.248;149.138;2023-03-01T16:54:04;2.75;;;1.00;;
41532;SDS011;27262;-35.248;149.138;2023-03-01T16:56:34;1.55;;;1.00;;